Ballymena, United Kingdom
Current Conditions -  °F | °C
As of 8:50 AM on Friday 24 Oct 2014 (Local Time) from EGAA Reporting Station
Few Clouds Few Clouds  
Wind Chill: 41°   Ceiling: Unl
Heat Index: 45°   Visibility: 6mi
Dew Point: 43°   Wind: 7mph
Humidity: 93%   Direction: 200°SSW
Pressure: 29.8"   Gusts: NA
Location:  54.86°N, 6.28°W
Report Text: EGAA 240750Z 20006KT 9999 FEW011 07/06 Q1009
Loading
Personal Weather Stations






























Interactive Weather Map
Tropical Storm Tracking
New forecast layout! Learn more

10-Day Weather Forecast

Advertisements
Track Severe Weather on mobile